Time;durP1;ratioP1;P1;durP2;ratioP2;P2;SDS_P1;SDS_P2;PMS_P1;PMS_P2;Temp;Humidity;BMP_temperature;BMP_pressure;BME280_temperature;BME280_humidity;BME280_pressure;Samples;Min_cycle;Max_cycle;Signal;HPM_P1;HPM_P2
2023/09/26 00:02:03;;;;;;;4.53;2.43;;;;;;;10.92;100.00;148868.34;4924792;29;20325;-57
2023/09/26 00:04:29;;;;;;;4.73;2.43;;;;;;;10.92;100.00;148868.34;4926530;29;20314;-57
2023/09/26 00:07:02;;;;;;;5.23;2.80;;;;;;;10.85;100.00;148852.19;4928311;29;20698;-53
2023/09/26 00:09:30;;;;;;;4.33;2.53;;;;;;;10.83;100.00;148847.19;4929260;29;20234;-56
2023/09/26 00:12:02;;;;;;;3.50;2.30;;;;;;;10.78;100.00;148835.97;4926118;28;20287;-57
2023/09/26 00:14:29;;;;;;;5.03;2.53;;;;;;;10.76;100.00;148829.75;4928392;29;20228;-57
2023/09/26 00:17:03;;;;;;;3.20;2.53;;;;;;;10.72;100.00;148821.00;4938888;28;20238;-56
2023/09/26 00:19:29;;;;;;;3.43;2.30;;;;;;;10.67;100.00;148807.34;4928601;28;20235;-56
2023/09/26 00:22:01;;;;;;;3.83;2.50;;;;;;;10.69;100.00;148812.31;4925694;28;20245;-56
2023/09/26 00:24:29;;;;;;;3.80;2.60;;;;;;;10.69;100.00;148812.31;4928251;28;20279;-57
2023/09/26 00:27:01;;;;;;;7.23;3.00;;;;;;;10.69;100.00;148813.53;4924981;29;20286;-57
2023/09/26 00:29:28;;;;;;;3.43;2.30;;;;;;;10.67;100.00;148808.56;4920066;29;20291;-56
2023/09/26 00:32:19;;;;;;;3.70;2.27;;;;;;;10.61;100.00;148794.88;4925103;29;20233;-57
2023/09/26 00:34:46;;;;;;;3.87;2.50;;;;;;;10.56;100.00;148781.19;4924343;28;20226;-54
2023/09/26 00:37:12;;;;;;;4.17;2.10;;;;;;;10.56;100.00;148782.41;4928372;28;20594;-56
2023/09/26 00:39:40;;;;;;;4.73;2.60;;;;;;;10.65;100.00;148803.56;4926271;29;20229;-58
2023/09/26 00:42:07;;;;;;;3.07;2.10;;;;;;;10.54;100.00;148776.22;4911186;29;20241;-56
2023/09/26 00:44:34;;;;;;;4.07;2.70;;;;;;;10.58;100.00;148787.41;4927161;28;20238;-56
2023/09/26 00:47:01;;;;;;;3.33;2.60;;;;;;;10.55;100.00;148778.72;4939444;28;20234;-57
2023/09/26 00:49:31;;;;;;;3.83;2.53;;;;;;;10.47;100.00;148760.00;4914815;29;20221;-56
2023/09/26 00:52:04;;;;;;;3.73;2.50;;;;;;;10.39;100.00;148741.34;4924884;29;20339;-53
2023/09/26 00:54:34;;;;;;;5.27;2.57;;;;;;;10.41;100.00;148746.31;4925679;29;20289;-57
2023/09/26 00:57:04;;;;;;;2.30;2.10;;;;;;;10.33;100.00;148726.34;4924276;28;20223;-56
2023/09/26 00:59:32;;;;;;;2.90;2.23;;;;;;;10.28;100.00;148715.13;4942160;28;20240;-55
2023/09/26 01:02:01;;;;;;;4.13;2.90;;;;;;;10.34;100.00;148728.84;4923210;29;20330;-57
2023/09/26 01:04:28;;;;;;;3.43;2.40;;;;;;;10.26;100.00;148710.13;4927293;29;20234;-56
2023/09/26 01:07:20;;;;;;;3.33;2.40;;;;;;;10.22;100.00;148700.19;4924399;28;20712;-57
2023/09/26 01:09:47;;;;;;;3.77;2.50;;;;;;;10.17;100.00;148687.72;4928288;28;20238;-56
2023/09/26 01:12:16;;;;;;;4.47;2.63;;;;;;;10.15;100.00;148684.00;4927466;29;20246;-55
2023/09/26 01:14:43;;;;;;;5.20;2.70;;;;;;;10.21;100.00;148696.47;4927151;28;20227;-57
2023/09/26 01:17:10;;;;;;;4.57;2.63;;;;;;;10.11;100.00;148672.78;4928142;28;20245;-55
2023/09/26 01:19:38;;;;;;;4.20;2.53;;;;;;;10.03;100.00;148655.41;4934652;29;20584;-56
2023/09/26 01:22:08;;;;;;;3.07;2.53;;;;;;;9.96;100.00;148636.69;4928236;28;20255;-57
2023/09/26 01:24:37;;;;;;;5.43;3.00;;;;;;;9.93;100.00;148629.22;4930449;29;20230;-57
2023/09/26 01:27:04;;;;;;;5.00;2.50;;;;;;;10.02;100.00;148652.91;4928374;29;20769;-56
2023/09/26 01:29:31;;;;;;;3.10;2.27;;;;;;;10.11;100.00;148672.78;4930980;28;20309;-57
2023/09/26 01:32:02;;;;;;;4.03;2.53;;;;;;;10.11;100.00;148672.78;4940759;28;20236;-57
2023/09/26 01:34:29;;;;;;;3.57;2.90;;;;;;;10.02;100.00;148652.91;4929150;29;20333;-57
2023/09/26 01:37:02;;;;;;;4.57;2.80;;;;;;;10.01;100.00;148650.41;4941743;28;20697;-57
2023/09/26 01:39:30;;;;;;;5.47;2.90;;;;;;;10.09;100.00;148667.81;4930916;28;20251;-56
2023/09/26 01:42:03;;;;;;;3.93;2.77;;;;;;;9.96;100.00;148636.69;4915712;28;20246;-57
2023/09/26 01:44:29;;;;;;;3.23;2.77;;;;;;;9.91;100.00;148625.50;4930402;28;20232;-58
2023/09/26 01:47:01;;;;;;;5.00;2.40;;;;;;;9.87;100.00;148615.56;4927299;28;20238;-57
2023/09/26 01:49:31;;;;;;;3.47;2.73;;;;;;;9.88;100.00;148618.03;4933244;28;20697;-56
2023/09/26 01:52:01;;;;;;;4.63;2.67;;;;;;;9.95;100.00;148635.47;4941730;28;20593;-54
2023/09/26 01:54:28;;;;;;;5.43;2.60;;;;;;;9.89;100.00;148621.75;4931227;28;20245;-56
2023/09/26 01:57:21;;;;;;;4.23;2.53;;;;;;;9.82;100.00;148604.31;4927966;28;20240;-56
2023/09/26 01:59:48;;;;;;;3.57;2.70;;;;;;;9.82;100.00;148604.31;4914429;28;20240;-57
2023/09/26 02:02:15;;;;;;;3.80;2.67;;;;;;;9.88;100.00;148618.03;4928855;29;20235;-55
2023/09/26 02:04:41;;;;;;;7.47;3.20;;;;;;;9.77;100.00;148590.66;4928603;29;20342;-56
2023/09/26 02:07:08;;;;;;;5.30;2.63;;;;;;;9.72;100.00;148580.69;4926406;29;20240;-56
2023/09/26 02:09:34;;;;;;;3.53;2.50;;;;;;;9.67;100.00;148566.97;4933654;29;20238;-58
2023/09/26 02:12:03;;;;;;;3.83;2.63;;;;;;;9.63;100.00;148557.03;4927335;29;20310;-57
2023/09/26 02:14:31;;;;;;;4.53;2.40;;;;;;;9.61;100.00;148553.31;4919917;29;20668;-56
2023/09/26 02:17:01;;;;;;;6.13;2.83;;;;;;;9.54;100.00;148537.09;4941357;28;20262;-55
2023/09/26 02:19:29;;;;;;;3.83;3.00;;;;;;;9.59;100.00;148549.56;4928770;29;20234;-55
2023/09/26 02:22:02;;;;;;;3.20;2.70;;;;;;;9.55;100.00;148539.59;4925878;29;20250;-57
2023/09/26 02:24:29;;;;;;;5.17;2.63;;;;;;;9.49;100.00;148524.69;4928608;29;20234;-55
2023/09/26 02:27:01;;;;;;;4.70;2.70;;;;;;;9.44;100.00;148513.47;4924201;28;20316;-56
2023/09/26 02:29:28;;;;;;;6.83;2.80;;;;;;;9.44;100.00;148513.47;4930217;28;20241;-54
2023/09/26 02:32:21;;;;;;;4.17;2.77;;;;;;;9.48;100.00;148520.94;4927417;29;20743;-56
2023/09/26 02:34:47;;;;;;;4.40;2.93;;;;;;;9.45;100.00;148514.75;4925782;28;20226;-56
2023/09/26 02:37:14;;;;;;;5.70;2.90;;;;;;;9.39;100.00;148499.81;4930594;29;20242;-55
2023/09/26 02:39:41;;;;;;;3.77;2.67;;;;;;;9.36;100.00;148493.56;4931133;29;20237;-56
2023/09/26 02:42:07;;;;;;;6.23;3.00;;;;;;;9.44;100.00;148512.25;4927302;28;20238;-56
2023/09/26 02:44:34;;;;;;;7.67;2.80;;;;;;;9.38;100.00;148498.53;4929620;28;20227;-55
2023/09/26 02:47:01;;;;;;;5.67;2.97;;;;;;;9.35;100.00;148489.84;4941254;28;20245;-55
2023/09/26 02:49:29;;;;;;;6.57;3.00;;;;;;;9.49;100.00;148523.44;4945712;28;20233;-55
2023/09/26 02:52:02;;;;;;;5.37;3.00;;;;;;;9.43;100.00;148511.00;4926111;28;20681;-57
2023/09/26 02:54:29;;;;;;;5.77;3.00;;;;;;;9.46;100.00;148517.22;4943850;28;20317;-57
2023/09/26 02:57:02;;;;;;;4.77;2.80;;;;;;;9.36;100.00;148492.34;4925686;29;20241;-57
2023/09/26 02:59:29;;;;;;;4.03;2.93;;;;;;;9.28;100.00;148474.91;4945385;28;20215;-57
2023/09/26 03:02:02;;;;;;;5.27;2.90;;;;;;;9.26;100.00;148468.66;4940250;28;20241;-57
2023/09/26 03:04:30;;;;;;;6.63;2.93;;;;;;;9.23;100.00;148461.22;4928302;28;20222;-57
2023/09/26 03:07:01;;;;;;;3.97;2.83;;;;;;;9.35;100.00;148489.84;4926465;29;20328;-56
2023/09/26 03:09:29;;;;;;;6.90;3.20;;;;;;;9.23;100.00;148462.47;4929271;29;20609;-57
2023/09/26 03:12:02;;;;;;;4.67;2.90;;;;;;;9.17;100.00;148447.53;4924974;29;20250;-57
2023/09/26 03:14:28;;;;;;;4.03;3.23;;;;;;;9.15;100.00;148442.56;4935126;29;20231;-57
2023/09/26 03:17:20;;;;;;;4.60;2.90;;;;;;;9.12;100.00;148435.09;4926533;29;20557;-57
2023/09/26 03:19:47;;;;;;;5.47;3.17;;;;;;;9.26;100.00;148469.94;4924871;28;20261;-58
2023/09/26 03:22:14;;;;;;;4.50;2.83;;;;;;;9.22;100.00;148458.72;4929629;29;20261;-57
2023/09/26 03:24:41;;;;;;;4.03;2.80;;;;;;;9.19;100.00;148451.25;4927550;29;20233;-57
2023/09/26 03:27:07;;;;;;;4.07;2.90;;;;;;;9.14;100.00;148440.06;4916256;29;20237;-58
2023/09/26 03:29:34;;;;;;;5.40;2.90;;;;;;;9.10;100.00;148431.34;4920828;29;20222;-57
2023/09/26 03:32:03;;;;;;;4.47;2.77;;;;;;;9.10;100.00;148430.13;5139510;23;20634;-54
2023/09/26 03:34:29;;;;;;;5.37;3.10;;;;;;;9.05;100.00;148417.69;4899817;29;20628;-56
2023/09/26 03:37:03;;;;;;;4.73;2.97;;;;;;;8.99;100.00;148404.00;4905824;28;20235;-57
2023/09/26 03:39:29;;;;;;;5.07;3.03;;;;;;;9.00;100.00;148406.50;4908804;28;20234;-57
2023/09/26 03:42:01;;;;;;;6.23;3.40;;;;;;;9.05;100.00;148417.69;4913209;28;20298;-54
2023/09/26 03:44:28;;;;;;;4.27;2.97;;;;;;;9.10;100.00;148430.13;4889464;29;20256;-58
2023/09/26 03:47:20;;;;;;;5.30;3.20;;;;;;;9.04;100.00;148416.41;4887726;28;20245;-58
2023/09/26 03:49:46;;;;;;;7.27;3.63;;;;;;;8.95;100.00;148394.06;4886227;29;20238;-57
2023/09/26 03:52:14;;;;;;;3.90;3.00;;;;;;;8.89;100.00;148379.13;4890541;28;20584;-59
2023/09/26 03:54:41;;;;;;;4.80;3.30;;;;;;;8.88;100.00;148377.88;4885488;29;20245;-57
2023/09/26 03:57:07;;;;;;;5.17;3.37;;;;;;;8.90;100.00;148381.63;4886523;28;20253;-55
2023/09/26 03:59:34;;;;;;;5.73;3.17;;;;;;;8.90;100.00;148381.63;4887272;29;20238;-57
2023/09/26 04:02:01;;;;;;;5.80;3.07;;;;;;;9.02;100.00;148411.44;4885700;28;20243;-55
2023/09/26 04:04:29;;;;;;;7.37;3.60;;;;;;;8.95;100.00;148394.06;4888739;29;20235;-57
2023/09/26 04:07:03;;;;;;;4.97;3.07;;;;;;;8.86;100.00;148372.88;4886168;28;20299;-58
2023/09/26 04:09:34;;;;;;;7.13;3.53;;;;;;;8.83;100.00;148365.44;4889228;29;20219;-57
2023/09/26 04:12:02;;;;;;;4.00;3.30;;;;;;;8.78;100.00;148352.97;4901540;29;20236;-58
2023/09/26 04:14:28;;;;;;;5.23;3.30;;;;;;;8.77;100.00;148350.50;4889318;29;20273;-58
2023/09/26 04:17:20;;;;;;;4.37;3.43;;;;;;;8.82;100.00;148362.94;4882740;28;20234;-56
2023/09/26 04:19:47;;;;;;;4.50;3.23;;;;;;;8.80;100.00;148359.22;4884186;29;20250;-57
2023/09/26 04:22:13;;;;;;;4.93;3.30;;;;;;;8.80;100.00;148359.22;4889312;28;20260;-57
2023/09/26 04:24:41;;;;;;;4.73;3.40;;;;;;;8.76;100.00;148348.00;4886298;29;20555;-57
2023/09/26 04:27:08;;;;;;;3.60;2.97;;;;;;;8.74;100.00;148343.03;4884720;29;20258;-58
2023/09/26 04:29:34;;;;;;;4.37;3.37;;;;;;;8.79;100.00;148355.47;4887842;29;20235;-58
2023/09/26 04:32:02;;;;;;;7.33;3.40;;;;;;;8.75;100.00;148345.50;4882659;29;20614;-56
2023/09/26 04:34:29;;;;;;;4.23;3.30;;;;;;;8.70;100.00;148335.56;4885489;29;20240;-56
2023/09/26 04:37:02;;;;;;;4.97;3.23;;;;;;;8.68;100.00;148330.59;4882891;29;20241;-54
2023/09/26 04:39:28;;;;;;;4.83;3.13;;;;;;;8.68;100.00;148330.59;4887076;29;20228;-54
2023/09/26 04:42:21;;;;;;;5.60;3.37;;;;;;;8.67;100.00;148328.09;4886694;28;20346;-55
2023/09/26 04:44:48;;;;;;;5.33;3.27;;;;;;;8.59;100.00;148308.19;4887623;29;20231;-55
2023/09/26 04:47:14;;;;;;;4.93;2.80;;;;;;;8.57;100.00;148304.50;4887178;28;20235;-54
2023/09/26 04:49:41;;;;;;;7.30;4.00;;;;;;;8.53;100.00;148293.28;4890269;29;20223;-57
2023/09/26 04:52:07;;;;;;;9.27;3.43;;;;;;;8.57;100.00;148303.22;4886857;28;20247;-58
2023/09/26 04:54:34;;;;;;;5.67;3.63;;;;;;;8.65;100.00;148323.13;4883553;29;20576;-58
2023/09/26 04:57:02;;;;;;;5.20;3.03;;;;;;;8.64;100.00;148319.41;4883935;29;20254;-58
2023/09/26 04:59:29;;;;;;;5.13;3.60;;;;;;;8.57;100.00;148303.22;4886343;28;20237;-58
2023/09/26 05:02:02;;;;;;;4.40;3.23;;;;;;;8.63;100.00;148316.94;4883082;28;20239;-60
2023/09/26 05:04:28;;;;;;;4.10;3.60;;;;;;;8.57;100.00;148304.50;4889153;28;20234;-57
2023/09/26 05:07:20;;;;;;;4.30;3.87;;;;;;;8.72;100.00;148339.31;4886588;28;20347;-56
2023/09/26 05:09:46;;;;;;;9.47;4.40;;;;;;;8.79;100.00;148355.47;4885131;29;20227;-57
2023/09/26 05:12:13;;;;;;;5.20;3.47;;;;;;;8.71;100.00;148336.84;4887278;29;20253;-56
2023/09/26 05:14:41;;;;;;;5.13;3.73;;;;;;;8.71;100.00;148336.84;4887897;29;20598;-57
2023/09/26 05:17:07;;;;;;;4.97;3.40;;;;;;;8.73;100.00;148340.53;4884008;28;20238;-57
2023/09/26 05:19:34;;;;;;;5.97;4.00;;;;;;;8.73;100.00;148340.53;4888357;29;20234;-58
2023/09/26 05:22:02;;;;;;;8.97;4.07;;;;;;;8.71;100.00;148336.84;4882801;28;20314;-56
2023/09/26 05:24:28;;;;;;;4.83;3.70;;;;;;;8.71;100.00;148338.06;4889125;28;20222;-57
2023/09/26 05:27:20;;;;;;;6.33;4.10;;;;;;;8.74;100.00;148343.03;4885665;28;20814;-57
2023/09/26 05:29:48;;;;;;;5.90;4.23;;;;;;;8.85;100.00;148370.41;4885620;29;20229;-58
2023/09/26 05:32:14;;;;;;;5.23;3.43;;;;;;;8.85;100.00;148370.41;4888293;28;20246;-58
2023/09/26 05:34:41;;;;;;;5.53;3.90;;;;;;;8.84;100.00;148367.91;4888370;29;20305;-58
2023/09/26 05:37:09;;;;;;;6.87;3.87;;;;;;;8.88;100.00;148376.66;4884915;28;20245;-59
2023/09/26 05:39:36;;;;;;;5.40;3.70;;;;;;;8.90;100.00;148382.84;4886820;29;20237;-57
2023/09/26 05:42:03;;;;;;;6.83;3.50;;;;;;;8.95;100.00;148395.28;4882081;28;20644;-57
2023/09/26 05:44:30;;;;;;;4.77;3.57;;;;;;;8.99;100.00;148404.00;4886077;29;20238;-57
2023/09/26 05:47:03;;;;;;;6.47;4.43;;;;;;;9.09;100.00;148428.84;4884517;28;20606;-57
2023/09/26 05:49:30;;;;;;;6.30;3.43;;;;;;;9.08;100.00;148426.38;4892434;29;20758;-58
2023/09/26 05:52:02;;;;;;;6.87;3.70;;;;;;;9.16;100.00;148445.06;4881305;28;20330;-57
2023/09/26 05:54:30;;;;;;;6.30;3.70;;;;;;;9.16;100.00;148445.06;4887044;28;20242;-56
2023/09/26 05:57:03;;;;;;;6.73;3.43;;;;;;;9.14;100.00;148440.06;4887306;28;20231;-59
2023/09/26 05:59:29;;;;;;;5.07;3.40;;;;;;;9.14;100.00;148441.28;4887232;29;20329;-59
2023/09/26 06:02:03;;;;;;;7.00;3.47;;;;;;;9.16;100.00;148446.28;4884059;28;20242;-58
2023/09/26 06:04:29;;;;;;;4.67;3.53;;;;;;;9.20;100.00;148453.75;4890849;29;20224;-59
2023/09/26 06:07:01;;;;;;;6.30;3.77;;;;;;;9.21;100.00;148457.50;4885365;28;20635;-56
2023/09/26 06:09:29;;;;;;;6.60;3.73;;;;;;;9.24;100.00;148463.69;4893305;29;20594;-57
2023/09/26 06:12:02;;;;;;;5.33;3.70;;;;;;;9.27;100.00;148472.44;4891839;28;20234;-57
2023/09/26 06:14:29;;;;;;;7.80;3.60;;;;;;;9.29;100.00;148477.41;4884991;29;20290;-57
2023/09/26 06:17:21;;;;;;;4.47;3.43;;;;;;;9.30;100.00;148479.91;4887972;28;20260;-58
2023/09/26 06:19:48;;;;;;;4.47;3.10;;;;;;;9.34;100.00;148488.59;4890037;29;20236;-56
2023/09/26 06:22:15;;;;;;;3.70;3.20;;;;;;;9.39;100.00;148499.81;4890216;28;20237;-58
2023/09/26 06:24:41;;;;;;;5.23;3.17;;;;;;;9.43;100.00;148511.00;4895373;29;20242;-54
2023/09/26 06:27:08;;;;;;;5.50;3.47;;;;;;;9.51;100.00;148528.41;4889327;28;20588;-55
2023/09/26 06:29:38;;;;;;;4.90;3.00;;;;;;;9.55;100.00;148538.38;4889754;29;20296;-55
2023/09/26 06:32:05;;;;;;;5.25;3.60;;;;;;;9.59;100.00;148548.34;4883504;28;20450;-56
2023/09/26 06:34:34;;;;;;;4.03;3.43;;;;;;;9.59;100.00;148548.34;4888174;29;20588;-57
2023/09/26 06:37:01;;;;;;;6.67;3.27;;;;;;;9.61;100.00;148553.31;4885553;28;20224;-58
2023/09/26 06:39:28;;;;;;;4.90;3.60;;;;;;;9.65;100.00;148562.00;4889219;29;20229;-58
2023/09/26 06:42:20;;;;;;;4.40;3.60;;;;;;;9.67;100.00;148566.97;4887720;28;20346;-58
2023/09/26 06:44:49;;;;;;;5.53;3.20;;;;;;;9.79;100.00;148595.63;4886942;29;20326;-58
2023/09/26 06:47:17;;;;;;;12.20;4.17;;;;;;;9.83;100.00;148606.81;4891021;28;20236;-58
2023/09/26 06:49:46;;;;;;;4.80;3.47;;;;;;;9.82;100.00;148604.31;4889866;29;20248;-58
2023/09/26 06:52:13;;;;;;;7.17;3.57;;;;;;;9.83;100.00;148605.59;4886625;28;20249;-58
2023/09/26 06:54:39;;;;;;;5.00;3.70;;;;;;;9.82;100.00;148604.31;4888476;28;20235;-56
2023/09/26 06:57:08;;;;;;;5.80;3.80;;;;;;;9.84;100.00;148609.31;4884886;28;20627;-57
2023/09/26 06:59:35;;;;;;;8.83;3.90;;;;;;;9.86;100.00;148613.06;4890211;29;20597;-58
2023/09/26 07:02:01;;;;;;;5.80;3.90;;;;;;;9.88;100.00;148619.25;4889659;28;21152;-57
2023/09/26 07:04:29;;;;;;;5.00;3.87;;;;;;;9.91;100.00;148625.50;4890987;29;20246;-58
2023/09/26 07:07:22;;;;;;;6.33;3.77;;;;;;;9.95;100.00;148634.22;4886619;28;20247;-57
2023/09/26 07:09:49;;;;;;;6.17;3.83;;;;;;;9.96;100.00;148637.97;4888942;29;20249;-57
2023/09/26 07:12:17;;;;;;;6.97;3.80;;;;;;;9.99;100.00;148645.44;4890173;28;20235;-57
2023/09/26 07:14:44;;;;;;;6.10;3.73;;;;;;;10.04;100.00;148656.63;4888398;29;20243;-57
2023/09/26 07:17:10;;;;;;;5.87;4.00;;;;;;;10.07;100.00;148664.09;4894727;29;20235;-57
2023/09/26 07:19:37;;;;;;;4.60;3.43;;;;;;;10.11;100.00;148674.03;4890026;28;20236;-59
2023/09/26 07:22:04;;;;;;;4.87;3.63;;;;;;;10.15;100.00;148682.75;4890486;28;20239;-58
2023/09/26 07:24:31;;;;;;;4.77;3.60;;;;;;;10.24;100.00;148703.94;4890507;29;20245;-57
2023/09/26 07:27:02;;;;;;;4.87;3.40;;;;;;;10.29;100.00;148716.38;4885385;29;20243;-57
2023/09/26 07:29:28;;;;;;;6.57;3.30;;;;;;;10.41;100.00;148746.31;4887817;29;20231;-59
2023/09/26 07:32:01;;;;;;;5.03;3.70;;;;;;;10.54;100.00;148776.22;4881502;28;20258;-59
2023/09/26 07:34:28;;;;;;;7.17;4.07;;;;;;;10.68;100.00;148811.03;4889001;29;20243;-58
2023/09/26 07:37:21;;;;;;;7.10;3.73;;;;;;;10.84;100.00;148849.69;4884484;29;20341;-56
2023/09/26 07:39:51;;;;;;;5.50;4.00;;;;;;;10.99;100.00;148884.56;4891657;29;20420;-57
2023/09/26 07:42:18;;;;;;;10.17;5.17;;;;;;;11.16;100.00;148925.66;4889146;28;20222;-57
2023/09/26 07:44:45;;;;;;;8.73;5.23;;;;;;;11.29;100.00;148958.06;4890471;29;20247;-56
2023/09/26 07:47:11;;;;;;;8.37;5.40;;;;;;;11.47;100.00;149000.44;4885600;29;20263;-56
2023/09/26 07:49:40;;;;;;;9.63;5.50;;;;;;;11.63;100.00;149039.03;4887237;29;20231;-58
2023/09/26 07:52:06;;;;;;;8.67;5.73;;;;;;;11.76;100.00;149070.19;4885252;28;20420;-57
2023/09/26 07:54:36;;;;;;;8.27;5.73;;;;;;;11.86;100.00;149093.91;4890401;29;20234;-58
2023/09/26 07:57:04;;;;;;;14.07;5.77;;;;;;;11.91;100.00;149107.59;4887734;28;20558;-57
2023/09/26 07:59:31;;;;;;;10.70;5.27;;;;;;;12.04;100.00;149137.56;4885705;29;20264;-57
2023/09/26 08:02:02;;;;;;;10.90;5.33;;;;;;;12.16;100.00;149166.25;4883695;29;20841;-54
2023/09/26 08:04:28;;;;;;;10.00;5.13;;;;;;;12.29;100.00;149197.41;4888140;29;20227;-56
2023/09/26 08:07:20;;;;;;;9.20;5.07;;;;;;;12.38;100.00;149219.84;4886279;28;20338;-55
2023/09/26 08:09:47;;;;;;;7.63;4.80;;;;;;;12.45;100.00;149237.31;4883352;29;20259;-56
2023/09/26 08:12:15;;;;;;;8.80;4.97;;;;;;;12.53;100.00;149256.00;4895574;29;20245;-54
2023/09/26 08:14:42;;;;;;;8.60;5.30;;;;;;;12.62;100.00;149277.22;4888417;29;20692;-55
2023/09/26 08:17:08;;;;;;;8.23;5.07;;;;;;;12.73;100.00;149304.59;4899965;29;20240;-59
2023/09/26 08:19:36;;;;;;;6.17;4.80;;;;;;;12.86;100.00;149335.81;4887895;28;20253;-55
2023/09/26 08:22:03;;;;;;;7.40;4.93;;;;;;;12.96;100.00;149360.75;4882651;29;20708;-54
2023/09/26 08:24:29;;;;;;;5.97;4.60;;;;;;;13.12;100.00;149399.41;4886854;29;20228;-57
2023/09/26 08:27:00;;;;;;;6.83;4.67;;;;;;;13.21;100.00;149419.38;4885991;28;20221;-55
2023/09/26 08:29:28;;;;;;;5.53;4.10;;;;;;;13.29;100.00;149440.56;4886168;29;20238;-56
2023/09/26 08:32:19;;;;;;;5.33;4.00;;;;;;;13.39;100.00;149464.28;4886911;29;20246;-54
2023/09/26 08:34:46;;;;;;;5.23;3.83;;;;;;;13.52;100.00;149494.28;4884800;29;20221;-57
2023/09/26 08:37:14;;;;;;;6.93;4.50;;;;;;;13.61;100.00;149515.50;4890982;28;20236;-57
2023/09/26 08:39:43;;;;;;;6.53;3.80;;;;;;;13.77;100.00;149554.19;4888424;28;20240;-57
2023/09/26 08:42:14;;;;;;;11.93;3.90;;;;;;;13.80;100.00;149562.91;4883990;28;20797;-58
2023/09/26 08:44:42;;;;;;;8.00;4.93;;;;;;;13.90;100.00;149585.38;4882999;29;20232;-57
2023/09/26 08:47:09;;;;;;;9.23;4.97;;;;;;;13.98;100.00;149605.34;4883562;29;20237;-57
2023/09/26 08:49:41;;;;;;;8.83;4.17;;;;;;;14.08;100.00;149630.31;4884796;29;20711;-58
2023/09/26 08:52:08;;;;;;;9.70;4.77;;;;;;;14.19;100.00;149656.50;4882002;28;20246;-58
2023/09/26 08:54:35;;;;;;;7.97;4.80;;;;;;;14.22;100.00;149662.78;4885753;29;20725;-57
2023/09/26 08:57:02;;;;;;;7.97;4.53;;;;;;;14.41;100.00;149708.94;4886028;28;20268;-55
2023/09/26 08:59:33;;;;;;;7.60;5.60;;;;;;;14.44;100.00;149717.66;4887528;29;20246;-54
2023/09/26 09:02:04;;;;;;;7.77;5.50;;;;;;;14.32;100.00;149687.69;4885922;28;20233;-52
2023/09/26 09:04:32;;;;;;;5.63;4.80;;;;;;;14.44;100.00;149717.66;4887814;29;20746;-55
2023/09/26 09:07:04;;;;;;;7.07;4.90;;;;;;;14.50;100.00;149730.16;4881710;29;20711;-53
2023/09/26 09:09:30;;;;;;;10.67;5.80;;;;;;;14.51;100.00;149733.94;4887541;29;20237;-51
2023/09/26 09:12:02;;;;;;;7.83;5.80;;;;;;;14.57;100.00;149747.63;4885807;28;20232;-51
2023/09/26 09:14:33;;;;;;;6.43;5.47;;;;;;;14.67;100.00;149771.38;4887877;29;20286;-53
2023/09/26 09:17:03;;;;;;;7.90;5.63;;;;;;;14.64;100.00;149765.13;4884933;29;20234;-51
2023/09/26 09:19:45;;;;;;;5.50;4.90;;;;;;;14.74;100.00;149788.91;4888015;29;20613;-51
2023/09/26 09:22:15;;;;;;;15.50;5.60;;;;;;;14.80;100.00;149803.91;4882239;28;20238;-52
2023/09/26 09:24:42;;;;;;;8.20;5.07;;;;;;;14.99;100.00;149848.81;4886815;29;20245;-52
2023/09/26 09:27:09;;;;;;;6.20;4.60;;;;;;;15.00;100.00;149852.59;4885976;28;20238;-53
2023/09/26 09:29:36;;;;;;;8.10;4.80;;;;;;;15.11;100.00;149878.81;4887923;29;20242;-54
2023/09/26 09:32:07;;;;;;;8.30;4.80;;;;;;;15.08;100.00;149871.31;4883509;28;20326;-56
2023/09/26 09:34:35;;;;;;;8.60;5.17;;;;;;;15.08;100.00;149870.09;4888449;28;20249;-56
2023/09/26 09:37:02;;;;;;;6.20;4.57;;;;;;;15.22;99.56;149903.78;4885130;28;20231;-56
2023/09/26 09:39:29;;;;;;;8.50;4.93;;;;;;;15.25;98.81;149911.28;4890131;28;20230;-55
2023/09/26 09:42:03;;;;;;;7.73;4.83;;;;;;;15.28;97.84;149918.78;4890472;28;20864;-52
2023/09/26 09:44:30;;;;;;;8.57;4.87;;;;;;;15.35;96.90;149936.25;4891105;29;20372;-51
2023/09/26 09:47:05;;;;;;;8.53;5.37;;;;;;;15.26;97.47;149913.78;4889865;28;20223;-53
2023/09/26 09:49:32;;;;;;;11.23;5.47;;;;;;;15.46;98.39;149962.47;4890185;29;20243;-53
2023/09/26 09:52:05;;;;;;;11.13;5.73;;;;;;;15.52;98.14;149976.25;4889466;28;20583;-53
2023/09/26 09:54:33;;;;;;;7.50;5.00;;;;;;;15.69;98.27;150018.75;4889981;29;20244;-53
2023/09/26 09:57:09;;;;;;;8.87;5.20;;;;;;;15.73;97.62;150027.47;4887580;28;20587;-52
2023/09/26 09:59:37;;;;;;;6.97;5.77;;;;;;;15.94;97.00;150078.72;4892939;29;20234;-54
2023/09/26 10:02:07;;;;;;;6.00;4.87;;;;;;;16.00;97.02;150093.72;4897146;29;20234;-54
2023/09/26 10:04:35;;;;;;;9.27;4.80;;;;;;;16.05;96.33;150106.22;4892884;29;20243;-56
2023/09/26 10:07:02;;;;;;;10.00;5.50;;;;;;;16.17;97.08;150133.72;4888826;28;20599;-55
2023/09/26 10:09:31;;;;;;;8.47;5.77;;;;;;;16.33;96.06;150172.50;4890246;29;20224;-54
2023/09/26 10:12:02;;;;;;;12.00;5.97;;;;;;;16.42;95.07;150193.72;4888312;28;20225;-52
2023/09/26 10:14:32;;;;;;;7.40;5.67;;;;;;;16.42;94.54;150195.00;4890893;29;20235;-55
2023/09/26 10:17:02;;;;;;;12.60;6.73;;;;;;;16.55;94.14;150226.22;4888372;29;20224;-55
2023/09/26 10:19:31;;;;;;;8.30;6.13;;;;;;;16.68;93.85;150257.47;4892065;29;20231;-54
2023/09/26 10:22:15;;;;;;;10.13;5.93;;;;;;;16.74;92.74;150271.22;4886281;28;21048;-54
2023/09/26 10:24:46;;;;;;;9.73;5.73;;;;;;;16.82;92.67;150292.47;4893995;29;20239;-54
2023/09/26 10:27:13;;;;;;;9.53;5.30;;;;;;;16.91;92.59;150312.47;4888266;29;20234;-52
2023/09/26 10:29:39;;;;;;;10.90;5.50;;;;;;;16.97;93.60;150328.75;4890848;29;20244;-54
2023/09/26 10:32:09;;;;;;;8.77;6.10;;;;;;;16.96;92.91;150324.97;4885717;29;22606;-52
2023/09/26 10:34:38;;;;;;;10.60;6.10;;;;;;;17.05;91.18;150347.53;4890159;28;20236;-55
2023/09/26 10:37:07;;;;;;;6.53;5.33;;;;;;;17.14;91.14;150367.56;4887046;28;20232;-55
2023/09/26 10:39:35;;;;;;;7.87;5.83;;;;;;;17.26;90.97;150397.56;4890538;29;20231;-54
2023/09/26 10:42:09;;;;;;;7.63;5.47;;;;;;;17.35;91.15;150418.81;4888246;28;20229;-55
2023/09/26 10:44:36;;;;;;;9.70;5.83;;;;;;;17.36;88.62;150421.31;4889058;29;20335;-56
2023/09/26 10:47:04;;;;;;;7.73;4.97;;;;;;;17.38;88.72;150427.59;4895863;28;20235;-52
2023/09/26 10:49:31;;;;;;;9.00;5.93;;;;;;;17.41;88.87;150433.81;4889758;29;20221;-53
2023/09/26 10:52:03;;;;;;;7.03;5.50;;;;;;;17.49;88.46;150452.59;4885858;28;20319;-55
2023/09/26 10:54:32;;;;;;;8.80;5.50;;;;;;;17.52;88.39;150461.34;4889521;29;20636;-54
2023/09/26 10:57:02;;;;;;;8.93;5.47;;;;;;;17.52;88.04;150460.06;4888854;28;20234;-53
2023/09/26 10:59:29;;;;;;;5.97;4.47;;;;;;;17.67;88.70;150496.38;4890914;29;20235;-55
2023/09/26 11:02:04;;;;;;;11.10;5.87;;;;;;;17.66;87.13;150495.09;4885103;29;20232;-58
2023/09/26 11:04:32;;;;;;;11.33;5.30;;;;;;;17.74;88.87;150513.88;4884950;29;20637;-52
2023/09/26 11:07:05;;;;;;;8.77;5.53;;;;;;;17.90;86.83;150551.41;4888532;28;20664;-57
2023/09/26 11:09:34;;;;;;;8.60;5.87;;;;;;;17.88;85.97;150546.41;4891709;29;20220;-57
2023/09/26 11:12:03;;;;;;;11.00;5.10;;;;;;;17.97;86.60;150568.94;4889171;28;20228;-54
2023/09/26 11:14:30;;;;;;;8.53;5.03;;;;;;;17.90;88.75;150551.41;4883253;29;20246;-54
2023/09/26 11:17:04;;;;;;;6.07;4.83;;;;;;;18.10;86.16;150600.25;4886439;28;20239;-54
2023/09/26 11:19:32;;;;;;;7.70;4.63;;;;;;;18.17;85.50;150617.75;4890074;29;20234;-55
2023/09/26 11:22:04;;;;;;;7.20;5.53;;;;;;;18.14;84.04;150610.25;4887417;28;20301;-55
2023/09/26 11:24:31;;;;;;;8.20;5.00;;;;;;;18.36;84.23;150664.03;4888441;29;20233;-53
2023/09/26 11:27:04;;;;;;;7.10;5.10;;;;;;;18.47;83.66;150690.34;4884613;28;20229;-55
2023/09/26 11:29:32;;;;;;;7.47;5.03;;;;;;;18.52;82.48;150701.59;4891569;28;20768;-56
2023/09/26 11:32:03;;;;;;;6.67;4.53;;;;;;;18.61;81.02;150722.84;4887410;29;20236;-55
2023/09/26 11:34:30;;;;;;;6.07;4.47;;;;;;;18.65;84.64;150732.88;4888510;28;20305;-56